Time;durP1;ratioP1;P1;durP2;ratioP2;P2;SDS_P1;SDS_P2;PMS_P1;PMS_P2;Temp;Humidity;BMP_temperature;BMP_pressure;BME280_temperature;BME280_humidity;BME280_pressure;Samples;Min_cycle;Max_cycle;Signal;HPM_P1;HPM_P2
2022/06/17 00:00:50;;;;;;;7.35;3.67;;;;;;;;;;5035024;28;88901;-65
2022/06/17 00:03:17;;;;;;;5.32;3.47;;;;;;;;;;5037793;28;89634;-70
2022/06/17 00:05:44;;;;;;;12.48;3.92;;;;;;;;;;5016168;27;88695;-70
2022/06/17 00:08:16;;;;;;;8.57;3.90;;;;;;;;;;5020431;28;89869;-70
2022/06/17 00:10:42;;;;;;;16.67;3.67;;;;;;;;;;5023012;28;89734;-70
2022/06/17 00:13:13;;;;;;;7.68;3.30;;;;;;;;;;5022590;28;88371;-70
2022/06/17 00:15:39;;;;;;;8.48;3.58;;;;;;;;;;5021380;28;88675;-70
2022/06/17 00:18:06;;;;;;;8.95;3.65;;;;;;;;;;5018991;28;89424;-67
2022/06/17 00:20:34;;;;;;;5.22;3.10;;;;;;;;;;5023653;28;90461;-67
2022/06/17 00:23:00;;;;;;;14.10;4.00;;;;;;;;;;5016191;28;87940;-66
2022/06/17 00:25:27;;;;;;;6.82;3.30;;;;;;;;;;5018536;28;89074;-66
2022/06/17 00:27:54;;;;;;;8.05;3.63;;;;;;;;;;5021987;27;89029;-66
2022/06/17 00:30:22;;;;;;;6.47;3.15;;;;;;;;;;5019825;28;89669;-65
2022/06/17 00:32:56;;;;;;;6.25;3.45;;;;;;;;;;5027020;28;90286;-65
2022/06/17 00:35:24;;;;;;;3.45;3.15;;;;;;;;;;5012600;28;88514;-65
2022/06/17 00:37:50;;;;;;;7.60;2.88;;;;;;;;;;5021101;28;88257;-65
2022/06/17 00:40:19;;;;;;;5.47;3.42;;;;;;;;;;5029284;28;88187;-65
2022/06/17 00:42:45;;;;;;;5.93;3.75;;;;;;;;;;5020326;28;89710;-65
2022/06/17 00:45:18;;;;;;;4.60;3.63;;;;;;;;;;5037666;27;89672;-65
2022/06/17 00:47:48;;;;;;;8.98;3.50;;;;;;;;;;5016859;28;88114;-65
2022/06/17 00:50:27;;;;;;;6.47;3.30;;;;;;;;;;5019080;28;88518;-65
2022/06/17 00:53:00;;;;;;;9.23;3.70;;;;;;;;;;5018243;28;90078;-65
2022/06/17 00:55:29;;;;;;;6.43;3.50;;;;;;;;;;5025882;28;88775;-65
2022/06/17 00:57:56;;;;;;;14.73;3.63;;;;;;;;;;5039173;28;89431;-64
2022/06/17 01:00:23;;;;;;;3.80;2.80;;;;;;;;;;5026186;27;88092;-64
2022/06/17 01:02:52;;;;;;;4.20;3.25;;;;;;;;;;5027556;28;89058;-64
2022/06/17 01:05:21;;;;;;;5.72;3.53;;;;;;;;;;5030420;28;90446;-63
2022/06/17 01:07:55;;;;;;;5.22;3.20;;;;;;;;;;5037585;27;88742;-63
2022/06/17 01:10:22;;;;;;;3.65;2.92;;;;;;;;;;5028857;27;90220;-63
2022/06/17 01:12:57;;;;;;;5.13;3.22;;;;;;;;;;5026188;28;89039;-63
2022/06/17 01:15:25;;;;;;;8.93;3.35;;;;;;;;;;5027471;27;88706;-63
2022/06/17 01:17:52;;;;;;;8.63;4.22;;;;;;;;;;5026421;27;88539;-63
2022/06/17 01:20:19;;;;;;;5.40;3.50;;;;;;;;;;5018038;27;88058;-64
2022/06/17 01:22:47;;;;;;;3.72;3.30;;;;;;;;;;5018174;28;89163;-64
2022/06/17 01:25:15;;;;;;;5.95;3.30;;;;;;;;;;5014602;28;93316;-64
2022/06/17 01:27:49;;;;;;;3.70;2.67;;;;;;;;;;5017058;27;91738;-68
2022/06/17 01:30:18;;;;;;;4.95;3.33;;;;;;;;;;5023499;28;92512;-67
2022/06/17 01:32:51;;;;;;;6.22;3.33;;;;;;;;;;5036068;27;93400;-65
2022/06/17 01:35:18;;;;;;;6.05;3.67;;;;;;;;;;5033817;27;95379;-64
2022/06/17 01:37:44;;;;;;;9.63;3.45;;;;;;;;;;5035322;28;95708;-65
2022/06/17 01:40:11;;;;;;;8.27;4.20;;;;;;;;;;5026824;27;93565;-65
2022/06/17 01:42:39;;;;;;;6.03;3.78;;;;;;;;;;5016518;28;93417;-65
2022/06/17 01:45:08;;;;;;;5.63;3.67;;;;;;;;;;5017867;28;93515;-65
2022/06/17 01:47:36;;;;;;;6.80;4.00;;;;;;;;;;5011380;28;92454;-65
2022/06/17 01:50:05;;;;;;;4.60;3.92;;;;;;;;;;5015265;28;93066;-64
2022/06/17 01:52:34;;;;;;;6.68;3.88;;;;;;;;;;5014313;28;93072;-71
2022/06/17 01:55:01;;;;;;;5.22;3.92;;;;;;;;;;5016194;28;92871;-71
2022/06/17 01:57:40;;;;;;;6.95;4.18;;;;;;;;;;5036536;27;93110;-69
2022/06/17 02:00:26;;;;;;;7.13;4.57;;;;;;;;;;5034830;27;96847;-68
2022/06/17 02:02:56;;;;;;;6.68;4.40;;;;;;;;;;5033416;28;92332;-68
2022/06/17 02:05:24;;;;;;;9.02;4.68;;;;;;;;;;5016857;28;93698;-68
2022/06/17 02:07:52;;;;;;;6.13;3.65;;;;;;;;;;5036713;27;92359;-68
2022/06/17 02:10:20;;;;;;;8.18;4.28;;;;;;;;;;5016573;27;93344;-67
2022/06/17 02:12:47;;;;;;;10.15;4.38;;;;;;;;;;5001928;28;93192;-67
2022/06/17 02:15:13;;;;;;;3.63;3.30;;;;;;;;;;5009833;28;92430;-67
2022/06/17 02:17:41;;;;;;;8.07;4.18;;;;;;;;;;5015292;28;94438;-67
2022/06/17 02:20:09;;;;;;;6.78;4.43;;;;;;;;;;5015065;28;93471;-67
2022/06/17 02:22:35;;;;;;;5.20;4.15;;;;;;;;;;5028165;28;92406;-68
2022/06/17 02:25:05;;;;;;;8.40;4.18;;;;;;;;;;5015937;27;94858;-70
2022/06/17 02:27:33;;;;;;;6.63;3.93;;;;;;;;;;5010739;28;93655;-66
2022/06/17 02:30:05;;;;;;;5.22;3.63;;;;;;;;;;5015113;28;94042;-69
2022/06/17 02:32:32;;;;;;;11.38;3.97;;;;;;;;;;5014904;28;93463;-69
2022/06/17 02:35:15;;;;;;;5.50;3.92;;;;;;;;;;5017547;28;92505;-69
2022/06/17 02:37:41;;;;;;;7.72;4.15;;;;;;;;;;5022676;27;93167;-69
2022/06/17 02:40:17;;;;;;;4.82;3.95;;;;;;;;;;5014159;28;93270;-70
2022/06/17 02:42:43;;;;;;;6.57;4.32;;;;;;;;;;5015494;28;91601;-70
2022/06/17 02:45:12;;;;;;;5.72;3.97;;;;;;;;;;5021622;28;92408;-68
2022/06/17 02:47:39;;;;;;;4.78;3.85;;;;;;;;;;5026259;28;92410;-69
2022/06/17 02:50:06;;;;;;;7.25;4.22;;;;;;;;;;5015429;27;94833;-69
2022/06/17 02:52:37;;;;;;;8.80;4.38;;;;;;;;;;5013305;28;93448;-67
2022/06/17 02:55:06;;;;;;;6.20;4.40;;;;;;;;;;5016365;28;92624;-68
2022/06/17 02:57:33;;;;;;;6.50;4.43;;;;;;;;;;5014567;28;93202;-68
2022/06/17 03:00:14;;;;;;;9.68;3.92;;;;;;;;;;5015083;28;93263;-67
2022/06/17 03:02:51;;;;;;;5.70;3.63;;;;;;;;;;5006935;28;92416;-66
2022/06/17 03:05:23;;;;;;;6.22;3.83;;;;;;;;;;5019878;28;93321;-65
2022/06/17 03:07:50;;;;;;;8.40;3.75;;;;;;;;;;5019558;27;92635;-67
2022/06/17 03:10:18;;;;;;;7.50;3.83;;;;;;;;;;5014279;28;92780;-67
2022/06/17 03:12:47;;;;;;;9.70;3.78;;;;;;;;;;5035137;27;93851;-67
2022/06/17 03:15:14;;;;;;;3.70;3.35;;;;;;;;;;5029904;27;94854;-67
2022/06/17 03:17:42;;;;;;;3.88;3.50;;;;;;;;;;5026021;27;95676;-67
2022/06/17 03:20:13;;;;;;;4.20;3.80;;;;;;;;;;5014118;27;93511;-67
2022/06/17 03:22:39;;;;;;;4.28;3.40;;;;;;;;;;5020701;28;92439;-67
2022/06/17 03:25:08;;;;;;;7.85;3.75;;;;;;;;;;5018217;27;94190;-67
2022/06/17 03:27:38;;;;;;;3.80;3.47;;;;;;;;;;5031906;27;93906;-68
2022/06/17 03:30:05;;;;;;;10.25;3.58;;;;;;;;;;5026890;27;92455;-67
2022/06/17 03:32:33;;;;;;;4.40;3.45;;;;;;;;;;5015017;28;93543;-66
2022/06/17 03:35:00;;;;;;;7.00;3.70;;;;;;;;;;5016316;28;92596;-67
2022/06/17 03:37:33;;;;;;;4.35;3.50;;;;;;;;;;5015803;27;93763;-65
2022/06/17 03:40:03;;;;;;;4.65;3.80;;;;;;;;;;5023830;27;96025;-65
2022/06/17 03:42:40;;;;;;;5.45;3.78;;;;;;;;;;5014006;28;92583;-65
2022/06/17 03:45:14;;;;;;;8.88;3.88;;;;;;;;;;5021835;28;94164;-65
2022/06/17 03:47:44;;;;;;;6.60;3.80;;;;;;;;;;5013435;28;93112;-67
2022/06/17 03:50:17;;;;;;;5.80;3.65;;;;;;;;;;5008898;28;92554;-67
2022/06/17 03:52:48;;;;;;;4.95;3.50;;;;;;;;;;5025556;28;92403;-66
2022/06/17 03:55:16;;;;;;;5.63;3.80;;;;;;;;;;5033015;28;92783;-66
2022/06/17 03:57:44;;;;;;;6.95;3.40;;;;;;;;;;5032311;27;93413;-68
2022/06/17 04:00:15;;;;;;;5.30;3.38;;;;;;;;;;5022425;27;93495;-68
2022/06/17 04:02:42;;;;;;;6.05;3.40;;;;;;;;;;5015859;28;92709;-67
2022/06/17 04:05:09;;;;;;;4.57;3.78;;;;;;;;;;5010945;28;94815;-67
2022/06/17 04:07:35;;;;;;;6.53;3.65;;;;;;;;;;5026813;28;92546;-66
2022/06/17 04:10:01;;;;;;;4.82;3.40;;;;;;;;;;5034410;27;92389;-66
2022/06/17 04:12:28;;;;;;;8.32;4.00;;;;;;;;;;5026002;27;93168;-67
2022/06/17 04:15:00;;;;;;;6.78;3.58;;;;;;;;;;5015978;28;94566;-65
2022/06/17 04:17:38;;;;;;;7.43;3.30;;;;;;;;;;4997496;28;93450;-69
2022/06/17 04:20:16;;;;;;;7.03;4.30;;;;;;;;;;5012152;28;92371;-69
2022/06/17 04:22:45;;;;;;;7.63;3.97;;;;;;;;;;5026104;28;92047;-70
2022/06/17 04:25:15;;;;;;;4.80;3.53;;;;;;;;;;5014176;27;93606;-70
2022/06/17 04:27:57;;;;;;;9.75;3.83;;;;;;;;;;5012933;28;93449;-71
2022/06/17 04:30:34;;;;;;;5.28;3.88;;;;;;;;;;5017948;28;94878;-71
2022/06/17 04:33:04;;;;;;;6.15;3.53;;;;;;;;;;5018511;27;95620;-71
2022/06/17 04:35:30;;;;;;;7.70;4.05;;;;;;;;;;5017288;27;93865;-73
2022/06/17 04:37:57;;;;;;;7.20;3.80;;;;;;;;;;5015701;28;92341;-73
2022/06/17 04:40:43;;;;;;;8.50;3.97;;;;;;;;;;5005202;28;93397;-73
2022/06/17 04:43:30;;;;;;;6.20;3.78;;;;;;;;;;5021266;28;92483;-73
2022/06/17 04:46:16;;;;;;;6.15;4.18;;;;;;;;;;5024346;27;93577;-72
2022/06/17 04:48:51;;;;;;;7.25;4.05;;;;;;;;;;5008050;28;92710;-72
2022/06/17 04:51:18;;;;;;;7.30;3.90;;;;;;;;;;5018203;27;92470;-72
2022/06/17 04:53:45;;;;;;;4.63;3.70;;;;;;;;;;5023327;27;93961;-72
2022/06/17 04:56:16;;;;;;;5.70;3.90;;;;;;;;;;5018110;27;95682;-72
2022/06/17 04:58:42;;;;;;;14.25;4.95;;;;;;;;;;5020253;28;92733;-72
2022/06/17 05:01:16;;;;;;;9.70;3.95;;;;;;;;;;5016817;28;94441;-72
2022/06/17 05:03:42;;;;;;;4.15;3.75;;;;;;;;;;5022056;27;92480;-65
2022/06/17 05:06:09;;;;;;;9.27;4.00;;;;;;;;;;5032277;27;93295;-66
2022/06/17 05:08:38;;;;;;;8.07;3.90;;;;;;;;;;5016179;28;92431;-65
2022/06/17 05:11:07;;;;;;;7.93;4.23;;;;;;;;;;5020365;28;92727;-64
2022/06/17 05:13:55;;;;;;;15.10;4.93;;;;;;;;;;5035417;27;94200;-64
2022/06/17 05:16:22;;;;;;;8.27;4.30;;;;;;;;;;5023080;27;93881;-63
2022/06/17 05:18:50;;;;;;;7.55;4.22;;;;;;;;;;5015301;28;92809;-64
2022/06/17 05:21:18;;;;;;;10.23;4.18;;;;;;;;;;5018104;28;94876;-64
2022/06/17 05:23:45;;;;;;;9.05;5.10;;;;;;;;;;5013103;28;92823;-64
2022/06/17 05:26:11;;;;;;;6.72;4.53;;;;;;;;;;5024048;28;93235;-65
2022/06/17 05:28:37;;;;;;;6.53;4.13;;;;;;;;;;5017567;28;93558;-68
2022/06/17 05:31:04;;;;;;;8.20;4.68;;;;;;;;;;5014062;28;92516;-64
2022/06/17 05:33:30;;;;;;;14.43;4.45;;;;;;;;;;5015027;28;93251;-68
2022/06/17 05:35:56;;;;;;;10.60;4.40;;;;;;;;;;5016784;28;94057;-71
2022/06/17 05:38:22;;;;;;;12.50;4.38;;;;;;;;;;5015470;28;91714;-70
2022/06/17 05:40:49;;;;;;;14.32;4.72;;;;;;;;;;5018743;28;92623;-70
2022/06/17 05:43:15;;;;;;;13.55;4.72;;;;;;;;;;5019227;28;93503;-71
2022/06/17 05:45:41;;;;;;;18.48;4.93;;;;;;;;;;5015436;28;94929;-71
2022/06/17 05:48:08;;;;;;;6.70;4.28;;;;;;;;;;5018547;28;93703;-71
2022/06/17 05:50:34;;;;;;;8.27;4.22;;;;;;;;;;5015387;28;92406;-71
2022/06/17 05:53:03;;;;;;;8.05;4.00;;;;;;;;;;5009346;28;93772;-68
2022/06/17 05:55:30;;;;;;;5.47;3.80;;;;;;;;;;5014447;28;93483;-71
2022/06/17 05:58:00;;;;;;;13.00;4.00;;;;;;;;;;5026751;28;94001;-66
2022/06/17 06:00:27;;;;;;;12.80;4.60;;;;;;;;;;5036884;27;94254;-67
2022/06/17 06:02:55;;;;;;;11.85;3.85;;;;;;;;;;5025762;27;93169;-66
2022/06/17 06:05:23;;;;;;;8.00;4.25;;;;;;;;;;5019270;28;92507;-66
2022/06/17 06:07:49;;;;;;;18.63;4.68;;;;;;;;;;5023032;28;93763;-66
2022/06/17 06:10:16;;;;;;;13.50;5.10;;;;;;;;;;5030531;27;94782;-67
2022/06/17 06:12:56;;;;;;;7.15;3.70;;;;;;;;;;5015924;28;95549;-67
2022/06/17 06:15:23;;;;;;;10.32;4.10;;;;;;;;;;5014531;28;94411;-67
2022/06/17 06:17:50;;;;;;;6.85;3.85;;;;;;;;;;5022861;28;94206;-66
2022/06/17 06:20:16;;;;;;;9.43;4.38;;;;;;;;;;5034509;27;93080;-68
2022/06/17 06:22:43;;;;;;;13.52;4.97;;;;;;;;;;5034369;27;93636;-68
2022/06/17 06:25:10;;;;;;;10.13;4.90;;;;;;;;;;5005168;28;92516;-65
2022/06/17 06:27:37;;;;;;;18.55;5.00;;;;;;;;;;5017833;28;94129;-67
2022/06/17 06:30:03;;;;;;;8.32;5.00;;;;;;;;;;5012882;28;92829;-66
2022/06/17 06:32:29;;;;;;;14.88;4.35;;;;;;;;;;5007829;28;93383;-67
2022/06/17 06:34:56;;;;;;;9.65;4.40;;;;;;;;;;5029666;28;95791;-67
2022/06/17 06:37:22;;;;;;;6.32;4.20;;;;;;;;;;5015658;28;92334;-67
2022/06/17 06:39:48;;;;;;;8.60;3.70;;;;;;;;;;5012581;28;93227;-67
2022/06/17 06:42:15;;;;;;;8.68;4.32;;;;;;;;;;5015968;28;93566;-66
2022/06/17 06:44:43;;;;;;;14.10;4.50;;;;;;;;;;5016263;28;92535;-67
2022/06/17 06:47:10;;;;;;;9.27;4.18;;;;;;;;;;5018781;28;93211;-67
2022/06/17 06:49:37;;;;;;;5.55;3.17;;;;;;;;;;5013739;28;94482;-67
2022/06/17 06:52:03;;;;;;;7.18;4.07;;;;;;;;;;5014879;28;93347;-67
2022/06/17 06:54:29;;;;;;;6.53;3.45;;;;;;;;;;5015275;28;93490;-67
2022/06/17 06:56:59;;;;;;;16.30;3.83;;;;;;;;;;5009779;28;92474;-66
2022/06/17 06:59:46;;;;;;;10.57;3.60;;;;;;;;;;5013568;27;95202;-66
2022/06/17 07:02:12;;;;;;;5.65;3.65;;;;;;;;;;5014257;28;93412;-66
2022/06/17 07:04:39;;;;;;;7.78;3.50;;;;;;;;;;5014776;28;92637;-66
2022/06/17 07:07:06;;;;;;;6.63;3.63;;;;;;;;;;5009109;28;93178;-66
2022/06/17 07:09:32;;;;;;;8.85;4.07;;;;;;;;;;5012356;28;94219;-66
2022/06/17 07:11:58;;;;;;;11.73;4.00;;;;;;;;;;5012804;28;94131;-66
2022/06/17 07:14:25;;;;;;;4.78;3.40;;;;;;;;;;5004361;28;93629;-63
2022/06/17 07:16:51;;;;;;;6.90;3.67;;;;;;;;;;5008757;28;91984;-64
2022/06/17 07:19:19;;;;;;;7.28;3.45;;;;;;;;;;5021279;27;93286;-64
2022/06/17 07:21:48;;;;;;;6.15;3.40;;;;;;;;;;5006315;28;94206;-64
2022/06/17 07:24:15;;;;;;;8.52;3.80;;;;;;;;;;5003987;28;94939;-64
2022/06/17 07:26:42;;;;;;;6.00;3.17;;;;;;;;;;5016841;28;95386;-64
2022/06/17 07:29:08;;;;;;;10.10;3.67;;;;;;;;;;5008999;28;94272;-64
2022/06/17 07:31:35;;;;;;;5.63;3.60;;;;;;;;;;5015536;28;92495;-65
2022/06/17 07:34:01;;;;;;;9.80;4.15;;;;;;;;;;5007888;28;93597;-65
2022/06/17 07:42:00;;;;;;;5.13;3.80;;;;;;;;;;5010855;28;92729;-65
2022/06/17 07:44:26;;;;;;;8.85;4.13;;;;;;;;;;5020712;28;92573;-65
2022/06/17 07:46:53;;;;;;;8.30;3.47;;;;;;;;;;5012713;28;94063;-65
2022/06/17 07:49:19;;;;;;;5.55;3.25;;;;;;;;;;5006607;28;96249;-65
2022/06/17 07:51:46;;;;;;;7.97;3.20;;;;;;;;;;5016963;28;92448;-65
2022/06/17 07:54:13;;;;;;;8.13;3.00;;;;;;;;;;5011642;27;92418;-64
2022/06/17 07:56:39;;;;;;;6.28;3.28;;;;;;;;;;5009812;28;92625;-64
2022/06/17 07:59:05;;;;;;;3.58;2.40;;;;;;;;;;5010181;28;92840;-65
2022/06/17 08:01:32;;;;;;;5.65;3.08;;;;;;;;;;5008504;28;93164;-65
2022/06/17 08:03:58;;;;;;;5.13;3.05;;;;;;;;;;5030290;28;92432;-64
2022/06/17 08:06:25;;;;;;;5.13;3.15;;;;;;;;;;5009301;28;93119;-65
2022/06/17 08:08:52;;;;;;;6.45;2.97;;;;;;;;;;5010485;28;93463;-64
2022/06/17 08:11:18;;;;;;;5.45;2.72;;;;;;;;;;5032376;27;92534;-64
2022/06/17 08:13:44;;;;;;;6.15;2.90;;;;;;;;;;5025869;28;94773;-65
2022/06/17 08:16:12;;;;;;;2.67;2.28;;;;;;;;;;5020782;28;93435;-65
2022/06/17 08:18:40;;;;;;;7.93;2.80;;;;;;;;;;4993956;28;92888;-64
2022/06/17 08:21:06;;;;;;;4.13;2.42;;;;;;;;;;5005149;28;95158;-64
2022/06/17 08:23:32;;;;;;;6.47;2.60;;;;;;;;;;5016086;28;92476;-65
2022/06/17 08:26:00;;;;;;;5.50;2.25;;;;;;;;;;5010214;28;94451;-65
2022/06/17 08:28:26;;;;;;;7.82;2.60;;;;;;;;;;5015481;27;94189;-68
2022/06/17 08:30:55;;;;;;;9.02;2.40;;;;;;;;;;5000907;28;91753;-70
2022/06/17 08:33:32;;;;;;;5.78;2.60;;;;;;;;;;5011564;27;92568;-65
2022/06/17 08:36:15;;;;;;;8.38;2.90;;;;;;;;;;5023531;28;93297;-64
2022/06/17 08:38:44;;;;;;;4.45;2.50;;;;;;;;;;5015969;27;94789;-65
2022/06/17 08:41:10;;;;;;;15.20;2.83;;;;;;;;;;5016210;28;93770;-65
2022/06/17 08:43:37;;;;;;;5.63;2.60;;;;;;;;;;5019585;28;93705;-65
2022/06/17 08:46:16;;;;;;;4.28;2.25;;;;;;;;;;5012729;28;93332;-65
2022/06/17 08:49:01;;;;;;;4.63;2.50;;;;;;;;;;5007692;28;94743;-65
2022/06/17 08:51:30;;;;;;;5.10;2.80;;;;;;;;;;5008269;28;92495;-65
2022/06/17 08:53:57;;;;;;;4.77;2.47;;;;;;;;;;5010859;28;93340;-65
2022/06/17 08:56:30;;;;;;;4.18;2.13;;;;;;;;;;5034248;27;93663;-65
2022/06/17 08:58:59;;;;;;;7.18;2.80;;;;;;;;;;5035144;27;92372;-65
2022/06/17 09:01:42;;;;;;;9.90;3.13;;;;;;;;;;5010508;28;93156;-65
2022/06/17 09:04:20;;;;;;;3.97;2.78;;;;;;;;;;5004711;28;94850;-65
2022/06/17 09:06:59;;;;;;;4.18;2.50;;;;;;;;;;5005065;28;95277;-65
2022/06/17 09:09:29;;;;;;;4.63;2.37;;;;;;;;;;5015590;28;94508;-65
2022/06/17 09:12:01;;;;;;;3.17;2.30;;;;;;;;;;5016508;28;92624;-65
2022/06/17 09:14:39;;;;;;;5.43;2.70;;;;;;;;;;5003664;28;93694;-65
2022/06/17 09:17:11;;;;;;;6.68;2.53;;;;;;;;;;5010801;28;93548;-65
2022/06/17 09:19:40;;;;;;;4.80;2.50;;;;;;;;;;5007430;28;92388;-65
2022/06/17 09:22:09;;;;;;;6.25;2.55;;;;;;;;;;5017420;28;92932;-65
2022/06/17 09:24:39;;;;;;;6.68;2.13;;;;;;;;;;5003900;28;93489;-65
2022/06/17 09:27:07;;;;;;;8.20;2.50;;;;;;;;;;5004796;28;92982;-65
2022/06/17 09:29:40;;;;;;;10.45;2.45;;;;;;;;;;5008781;28;96198;-65
2022/06/17 09:32:10;;;;;;;3.85;2.20;;;;;;;;;;5010955;28;92508;-65
2022/06/17 09:34:40;;;;;;;5.03;2.10;;;;;;;;;;5004834;28;94906;-65
2022/06/17 09:37:11;;;;;;;5.72;2.40;;;;;;;;;;5016031;28;93560;-65
2022/06/17 09:39:44;;;;;;;4.20;2.10;;;;;;;;;;5015722;28;92330;-65
2022/06/17 09:42:16;;;;;;;6.20;2.38;;;;;;;;;;5014309;28;93961;-65
2022/06/17 09:44:46;;;;;;;4.70;2.30;;;;;;;;;;5011851;28;93705;-65
2022/06/17 09:47:16;;;;;;;4.70;2.13;;;;;;;;;;5001381;28;93061;-64
2022/06/17 09:49:52;;;;;;;6.40;2.08;;;;;;;;;;5016774;28;94063;-65
2022/06/17 09:52:23;;;;;;;2.17;1.77;;;;;;;;;;5027812;28;94198;-65
2022/06/17 09:54:52;;;;;;;4.13;2.10;;;;;;;;;;5017195;28;94870;-65
2022/06/17 09:57:39;;;;;;;4.77;2.10;;;;;;;;;;5007890;28;93908;-66
2022/06/17 10:00:08;;;;;;;4.30;2.50;;;;;;;;;;4994437;28;92342;-65
2022/06/17 10:02:48;;;;;;;5.00;1.90;;;;;;;;;;5020623;28;94204;-66
2022/06/17 10:05:31;;;;;;;2.30;1.67;;;;;;;;;;5036117;27;94404;-66
2022/06/17 10:08:18;;;;;;;3.75;1.50;;;;;;;;;;5038845;27;92445;-65
2022/06/17 10:10:52;;;;;;;4.50;1.60;;;;;;;;;;5011031;27;93285;-65
2022/06/17 10:13:21;;;;;;;3.20;1.92;;;;;;;;;;5009368;28;92248;-66
2022/06/17 10:18:44;;;;;;;4.38;1.90;;;;;;;;;;4997471;28;94449;-65
2022/06/17 10:21:17;;;;;;;2.38;1.45;;;;;;;;;;5011711;28;95425;-66
2022/06/17 10:23:58;;;;;;;3.75;2.20;;;;;;;;;;5026934;28;95786;-66
2022/06/17 10:26:31;;;;;;;1.88;1.60;;;;;;;;;;5009394;28;94533;-65
2022/06/17 10:29:00;;;;;;;3.22;1.75;;;;;;;;;;5012726;27;92895;-65
2022/06/17 10:31:34;;;;;;;2.85;1.88;;;;;;;;;;5023118;28;94103;-64
2022/06/17 10:34:03;;;;;;;2.47;1.90;;;;;;;;;;5009226;28;93759;-65
2022/06/17 10:36:35;;;;;;;2.53;1.45;;;;;;;;;;5019459;28;94706;-65
2022/06/17 10:39:02;;;;;;;3.08;1.60;;;;;;;;;;5027260;27;92588;-65
2022/06/17 10:41:29;;;;;;;1.50;1.40;;;;;;;;;;5014020;27;93315;-65
2022/06/17 10:43:56;;;;;;;2.33;1.40;;;;;;;;;;5008527;28;92523;-64
2022/06/17 10:46:24;;;;;;;2.22;1.50;;;;;;;;;;5007060;28;95961;-59
2022/06/17 10:48:57;;;;;;;1.92;1.50;;;;;;;;;;5010178;28;92581;-58
2022/06/17 10:51:24;;;;;;;1.65;1.50;;;;;;;;;;5013859;28;93184;-59
2022/06/17 10:53:52;;;;;;;3.05;1.60;;;;;;;;;;5011690;28;93530;-58
2022/06/17 10:56:25;;;;;;;1.45;1.35;;;;;;;;;;5008710;28;93464;-58
2022/06/17 10:58:56;;;;;;;2.58;1.92;;;;;;;;;;5015162;28;93589;-58
2022/06/17 11:01:24;;;;;;;2.75;1.52;;;;;;;;;;5015251;28;92379;-60
2022/06/17 11:04:08;;;;;;;3.17;1.50;;;;;;;;;;5015435;28;92976;-59
2022/06/17 11:06:43;;;;;;;1.92;1.50;;;;;;;;;;5014094;28;93589;-63
2022/06/17 11:09:16;;;;;;;2.05;1.50;;;;;;;;;;5012234;28;92510;-61
2022/06/17 11:12:06;;;;;;;2.05;1.60;;;;;;;;;;5015751;28;95343;-61
2022/06/17 11:14:44;;;;;;;3.83;1.70;;;;;;;;;;5037643;27;93433;-62
2022/06/17 11:17:14;;;;;;;8.02;1.90;;;;;;;;;;5026253;27;93303;-61
2022/06/17 11:19:41;;;;;;;;;;;;;;;;;;5015627;27;94831;-59
2022/06/17 11:22:15;;;;;;;1.60;1.45;;;;;;;;;;5006347;28;116665;-59
2022/06/17 11:24:42;;;;;;;3.15;1.70;;;;;;;;;;5029892;28;92392;-59
2022/06/17 11:27:14;;;;;;;6.75;1.80;;;;;;;;;;5016900;27;94399;-61
2022/06/17 11:29:43;;;;;;;4.68;1.70;;;;;;;;;;5014850;28;91655;-61
2022/06/17 11:32:29;;;;;;;9.38;2.28;;;;;;;;;;5020903;28;92440;-57
2022/06/17 11:34:57;;;;;;;6.57;2.05;;;;;;;;;;5024823;27;93693;-57
2022/06/17 11:37:28;;;;;;;5.40;2.75;;;;;;;;;;5010293;28;95545;-57
2022/06/17 11:40:06;;;;;;;7.97;2.00;;;;;;;;;;5030040;28;94630;-57
2022/06/17 11:42:33;;;;;;;9.88;2.70;;;;;;;;;;5034580;27;92350;-57
2022/06/17 11:45:05;;;;;;;13.00;2.72;;;;;;;;;;5034103;27;93194;-57
2022/06/17 11:47:32;;;;;;;11.63;2.80;;;;;;;;;;5030521;28;93271;-58
2022/06/17 11:50:00;;;;;;;4.53;2.70;;;;;;;;;;5028438;27;92413;-57
2022/06/17 11:52:34;;;;;;;11.05;2.90;;;;;;;;;;5012303;28;93114;-57
2022/06/17 11:55:00;;;;;;;9.75;2.75;;;;;;;;;;5012661;28;93330;-58
2022/06/17 11:57:31;;;;;;;12.15;2.53;;;;;;;;;;5000743;28;92525;-57
2022/06/17 11:59:59;;;;;;;9.90;2.50;;;;;;;;;;5037653;27;95028;-57
2022/06/17 12:02:26;;;;;;;9.35;2.42;;;;;;;;;;5031052;27;95144;-57
2022/06/17 12:04:55;;;;;;;7.57;2.90;;;;;;;;;;5023440;27;96466;-57
2022/06/17 12:07:33;;;;;;;6.00;2.67;;;;;;;;;;5032015;28;93233;-57
2022/06/17 12:10:00;;;;;;;8.45;2.72;;;;;;;;;;5035929;28;94155;-57
2022/06/17 12:12:27;;;;;;;7.63;2.50;;;;;;;;;;5016300;27;94689;-57
2022/06/17 12:14:53;;;;;;;15.93;2.33;;;;;;;;;;5030696;28;93376;-57
2022/06/17 12:17:20;;;;;;;4.88;2.22;;;;;;;;;;5005558;28;92673;-56
2022/06/17 12:19:59;;;;;;;4.50;2.10;;;;;;;;;;5012975;28;93133;-57
2022/06/17 12:22:33;;;;;;;6.78;2.35;;;;;;;;;;5020376;28;94346;-57
2022/06/17 12:25:06;;;;;;;9.82;2.25;;;;;;;;;;5019405;28;93330;-56
2022/06/17 12:27:39;;;;;;;6.90;2.10;;;;;;;;;;5028784;28;96816;-57
2022/06/17 12:30:32;;;;;;;5.53;2.05;;;;;;;;;;5017890;28;92572;-57
2022/06/17 12:33:06;;;;;;;11.85;2.50;;;;;;;;;;5025838;27;93574;-56
2022/06/17 12:35:35;;;;;;;8.93;1.98;;;;;;;;;;5003002;28;93318;-56
2022/06/17 12:38:04;;;;;;;9.32;2.20;;;;;;;;;;5014880;28;92365;-57
2022/06/17 12:40:30;;;;;;;30.30;2.50;;;;;;;;;;5016107;28;93194;-57
2022/06/17 12:43:06;;;;;;;6.47;1.90;;;;;;;;;;5018371;28;93217;-57
2022/06/17 12:45:36;;;;;;;3.97;2.10;;;;;;;;;;5020994;28;91723;-57
2022/06/17 12:48:16;;;;;;;3.88;1.90;;;;;;;;;;5017207;28;94584;-57
2022/06/17 12:53:37;;;;;;;4.10;2.15;;;;;;;;;;5026138;27;95013;-57
2022/06/17 12:56:03;;;;;;;9.43;2.42;;;;;;;;;;5033826;27;93222;-57
2022/06/17 12:58:48;;;;;;;5.38;1.70;;;;;;;;;;5016105;27;92522;-57
2022/06/17 13:01:19;;;;;;;2.25;1.63;;;;;;;;;;5016938;28;93268;-57
2022/06/17 13:03:46;;;;;;;4.13;2.17;;;;;;;;;;5028805;28;93381;-56
2022/06/17 13:06:39;;;;;;;4.68;1.52;;;;;;;;;;5031056;27;92839;-57
2022/06/17 13:09:06;;;;;;;2.65;1.50;;;;;;;;;;4999618;28;93006;-57
2022/06/17 13:11:52;;;;;;;4.57;1.50;;;;;;;;;;5000475;28;92027;-57
2022/06/17 13:14:22;;;;;;;3.28;1.70;;;;;;;;;;5019736;28;93958;-57
2022/06/17 13:16:58;;;;;;;5.20;1.85;;;;;;;;;;5017120;28;93802;-57
2022/06/17 13:19:43;;;;;;;2.80;1.50;;;;;;;;;;5014166;28;95192;-59
2022/06/17 13:22:15;;;;;;;2.85;1.90;;;;;;;;;;5014027;28;95534;-60
2022/06/17 13:24:46;;;;;;;8.60;1.90;;;;;;;;;;5027748;28;92685;-59
2022/06/17 13:27:18;;;;;;;6.22;2.00;;;;;;;;;;5036612;27;92364;-58
2022/06/17 13:29:52;;;;;;;2.53;1.40;;;;;;;;;;5039461;27;92740;-58
2022/06/17 13:32:21;;;;;;;6.15;1.80;;;;;;;;;;5019637;27;92587;-58
2022/06/17 13:35:13;;;;;;;4.13;1.80;;;;;;;;;;5036214;27;92897;-59
2022/06/17 13:38:01;;;;;;;6.10;2.08;;;;;;;;;;5006424;28;92696;-58
2022/06/17 13:40:32;;;;;;;8.82;1.58;;;;;;;;;;5015877;28;92434;-61
2022/06/17 13:43:03;;;;;;;2.65;1.70;;;;;;;;;;5020041;28;92990;-61
2022/06/17 13:45:40;;;;;;;6.63;1.85;;;;;;;;;;5031279;27;97150;-61
2022/06/17 13:48:09;;;;;;;4.32;2.10;;;;;;;;;;5016155;28;92556;-60
2022/06/17 13:50:54;;;;;;;17.13;1.77;;;;;;;;;;5014086;28;93515;-60
2022/06/17 13:53:21;;;;;;;5.97;2.13;;;;;;;;;;5029521;28;93431;-61
2022/06/17 13:56:06;;;;;;;6.28;1.67;;;;;;;;;;5013324;27;93081;-61
2022/06/17 13:58:47;;;;;;;4.60;2.00;;;;;;;;;;5011035;28;93755;-61
2022/06/17 14:01:22;;;;;;;4.03;1.58;;;;;;;;;;5018686;28;94238;-61
2022/06/17 14:03:49;;;;;;;7.85;1.55;;;;;;;;;;5023515;27;93069;-61
2022/06/17 14:06:15;;;;;;;3.38;1.45;;;;;;;;;;5035669;27;93387;-61
2022/06/17 14:08:47;;;;;;;3.88;1.52;;;;;;;;;;5034195;27;92468;-61
2022/06/17 14:11:44;;;;;;;7.80;1.52;;;;;;;;;;5034605;27;94782;-60
2022/06/17 14:14:20;;;;;;;2.65;1.60;;;;;;;;;;5020376;27;94283;-61
2022/06/17 14:16:54;;;;;;;5.45;1.50;;;;;;;;;;5020721;28;93114;-62
2022/06/17 14:19:25;;;;;;;3.10;2.00;;;;;;;;;;5020329;28;93358;-62
2022/06/17 14:21:52;;;;;;;;;;;;;;;;;;5026112;27;92512;-61
2022/06/17 14:24:37;;;;;;;7.90;1.63;;;;;;;;;;5028230;28;123931;-62
2022/06/17 14:27:04;;;;;;;4.80;1.52;;;;;;;;;;5035657;27;94445;-61
2022/06/17 14:29:32;;;;;;;2.55;1.30;;;;;;;;;;5026099;27;91759;-62
2022/06/17 14:32:03;;;;;;;5.20;1.75;;;;;;;;;;5032011;28;92337;-61
2022/06/17 14:34:32;;;;;;;5.65;1.65;;;;;;;;;;5034961;27;93690;-64
2022/06/17 14:37:03;;;;;;;2.20;1.50;;;;;;;;;;5022229;27;94829;-62
2022/06/17 14:39:39;;;;;;;9.65;1.50;;;;;;;;;;5024798;28;96587;-64
2022/06/17 14:42:08;;;;;;;2.45;1.55;;;;;;;;;;5035499;27;92423;-65
2022/06/17 14:44:39;;;;;;;3.93;1.70;;;;;;;;;;5016463;27;93211;-64
2022/06/17 14:47:18;;;;;;;3.10;1.60;;;;;;;;;;5013479;28;93524;-64
2022/06/17 14:49:59;;;;;;;6.40;1.30;;;;;;;;;;5019389;27;92521;-64
2022/06/17 14:52:27;;;;;;;8.30;1.90;;;;;;;;;;5018406;28;93210;-64
2022/06/17 14:55:05;;;;;;;2.17;1.50;;;;;;;;;;5015279;28;92400;-63
2022/06/17 14:57:42;;;;;;;2.40;1.45;;;;;;;;;;5014786;28;92482;-63
2022/06/17 15:00:13;;;;;;;3.67;1.30;;;;;;;;;;4995216;28;92839;-64
2022/06/17 15:02:41;;;;;;;6.38;1.75;;;;;;;;;;5016811;28;95871;-64
2022/06/17 15:05:21;;;;;;;1.33;1.23;;;;;;;;;;5035026;27;95674;-63
2022/06/17 15:07:49;;;;;;;8.15;1.60;;;;;;;;;;5024458;28;93798;-62
2022/06/17 15:10:25;;;;;;;4.03;1.30;;;;;;;;;;4994717;28;92331;-60
2022/06/17 15:12:55;;;;;;;4.25;1.60;;;;;;;;;;5010455;28;93379;-60
2022/06/17 15:15:24;;;;;;;4.57;1.73;;;;;;;;;;5029565;27;93246;-60